createdAt,value
2019-01-03T00:01:53.329Z,80.84
2019-01-03T00:05:25.427Z,80.95
2019-01-03T00:08:50.068Z,81.02
2019-01-03T00:12:13.545Z,81.86
2019-01-03T00:15:35.514Z,82.35
2019-01-03T00:19:10.537Z,82.69
2019-01-03T00:22:34.327Z,82.98
2019-01-03T00:26:14.732Z,83.20
2019-01-03T00:29:48.835Z,83.74
2019-01-03T00:33:16.694Z,83.89
2019-01-03T00:36:46.004Z,83.95
2019-01-03T00:40:07.548Z,84.13
2019-01-03T00:43:30.740Z,84.27
2019-01-03T00:47:00.022Z,84.23
2019-01-03T00:50:25.349Z,84.21
2019-01-03T00:53:42.918Z,84.22
2019-01-03T00:57:26.100Z,84.34
2019-01-03T01:00:43.956Z,84.40
2019-01-03T01:04:10.084Z,84.39
2019-01-03T01:07:39.677Z,85.64
2019-01-03T01:11:45.859Z,85.98
2019-01-03T01:14:26.724Z,85.82
2019-01-03T01:17:58.117Z,85.63
2019-01-03T01:21:15.119Z,85.42
2019-01-03T01:24:59.970Z,85.11
2019-01-03T01:28:18.322Z,84.15
2019-01-03T01:32:18.935Z,83.86
2019-01-03T01:35:42.051Z,83.71
2019-01-03T01:39:08.029Z,83.51
2019-01-03T01:42:31.292Z,83.25
2019-01-03T01:45:54.496Z,83.37
2019-01-03T01:49:27.317Z,83.23
2019-01-03T01:53:00.981Z,83.01
2019-01-03T01:56:23.371Z,82.78
2019-01-03T01:59:52.439Z,82.80
2019-01-03T02:03:31.058Z,82.79
2019-01-03T02:06:49.453Z,83.15
2019-01-03T02:10:11.657Z,83.13
2019-01-03T02:13:37.844Z,83.02
2019-01-03T02:17:04.999Z,82.96
2019-01-03T02:20:34.423Z,82.71
2019-01-03T02:24:07.089Z,82.43
2019-01-03T02:27:41.844Z,82.10
2019-01-03T02:31:03.440Z,81.32
2019-01-03T02:34:27.571Z,80.99
2019-01-03T02:37:56.172Z,80.32
2019-01-03T02:41:22.027Z,79.89
2019-01-03T02:44:49.172Z,79.06
2019-01-03T02:48:17.244Z,78.87
2019-01-03T02:51:36.919Z,78.73
2019-01-03T02:55:01.145Z,78.25
2019-01-03T02:58:23.713Z,77.64
2019-01-03T03:01:53.332Z,77.25
2019-01-03T03:05:16.906Z,76.96
2019-01-03T03:08:32.084Z,77.22
2019-01-03T03:12:09.886Z,77.07
2019-01-03T03:15:30.877Z,77.07
2019-01-03T03:18:48.797Z,77.48
2019-01-03T03:22:11.100Z,77.68
2019-01-03T03:25:49.824Z,79.34
2019-01-03T03:29:08.650Z,80.53
2019-01-03T03:32:36.871Z,80.92
2019-01-03T03:36:12.038Z,80.37
2019-01-03T03:39:46.952Z,79.49
2019-01-03T03:43:19.425Z,79.46
2019-01-03T03:46:42.852Z,79.59
2019-01-03T03:50:12.456Z,80.18
2019-01-03T03:53:51.429Z,80.00
2019-01-03T03:57:24.495Z,79.80
2019-01-03T04:01:03.091Z,78.95
2019-01-03T04:04:28.197Z,77.75
2019-01-03T04:08:09.815Z,77.71
2019-01-03T04:11:32.210Z,78.27
2019-01-03T04:15:02.941Z,80.00
2019-01-03T04:18:32.181Z,80.39
2019-01-03T04:22:06.405Z,79.82
2019-01-03T04:25:29.117Z,80.05
2019-01-03T04:28:52.421Z,80.68
2019-01-03T04:32:19.895Z,81.15
2019-01-03T04:35:43.325Z,81.46
2019-01-03T04:39:19.161Z,82.02
2019-01-03T04:42:46.856Z,82.09
2019-01-03T04:46:16.017Z,81.98
2019-01-03T04:50:00.552Z,82.18
2019-01-03T04:53:23.901Z,82.45
2019-01-03T04:56:46.154Z,82.55
2019-01-03T05:00:19.015Z,82.68
2019-01-03T05:04:06.555Z,82.41
2019-01-03T05:07:34.580Z,82.59
2019-01-03T05:11:05.192Z,82.96
2019-01-03T05:14:36.191Z,83.34
2019-01-03T05:18:20.763Z,83.36
2019-01-03T05:21:53.906Z,83.70
2019-01-03T05:25:17.206Z,84.20
2019-01-03T05:28:40.390Z,84.32
2019-01-03T05:36:03.524Z,84.94
2019-01-03T05:39:27.115Z,85.78
2019-01-03T05:43:03.126Z,85.95
2019-01-03T05:46:34.030Z,85.82
2019-01-03T05:50:06.170Z,85.77
2019-01-03T05:53:38.140Z,86.00
2019-01-03T05:57:13.224Z,86.02
2019-01-03T06:00:45.496Z,86.08
2019-01-03T06:04:13.919Z,86.14
2019-01-03T06:07:37.228Z,86.31
2019-01-03T06:11:18.945Z,86.27
2019-01-03T06:14:40.844Z,86.34
2019-01-03T06:18:10.493Z,86.38
2019-01-03T06:21:43.083Z,86.47
2019-01-03T06:25:05.176Z,86.45
2019-01-03T06:28:27.144Z,86.51
2019-01-03T06:31:59.635Z,86.47
2019-01-03T06:35:26.326Z,86.45
2019-01-03T06:38:59.173Z,86.55
2019-01-03T06:42:33.549Z,86.50
2019-01-03T06:45:54.607Z,86.64
2019-01-03T06:49:34.341Z,86.85
2019-01-03T06:52:59.647Z,86.95
2019-01-03T06:56:26.695Z,86.98
2019-01-03T07:00:05.251Z,87.50
2019-01-03T07:03:27.794Z,87.75
2019-01-03T07:07:06.482Z,87.87
2019-01-03T07:10:28.601Z,87.92
2019-01-03T07:13:50.937Z,87.91
2019-01-03T07:17:20.177Z,88.01
2019-01-03T07:20:52.795Z,88.14
2019-01-03T07:24:13.849Z,88.23
2019-01-03T07:27:37.123Z,88.30
2019-01-03T07:31:16.774Z,88.37
2019-01-03T07:34:55.009Z,88.56
2019-01-03T07:38:18.342Z,88.67
2019-01-03T07:41:55.393Z,88.69
2019-01-03T07:45:33.757Z,88.89
2019-01-03T07:48:57.529Z,89.29
2019-01-03T07:52:21.032Z,89.41
2019-01-03T07:55:44.385Z,89.51
2019-01-03T07:59:07.761Z,89.54
2019-01-03T08:02:30.135Z,89.64
2019-01-03T08:05:45.873Z,89.80
2019-01-03T08:09:09.158Z,89.81
2019-01-03T08:12:47.653Z,89.82
2019-01-03T08:16:17.164Z,90.05
2019-01-03T08:19:52.954Z,90.19
2019-01-03T08:23:15.122Z,90.15
2019-01-03T08:26:37.203Z,90.17
2019-01-03T08:30:12.630Z,90.13
2019-01-03T08:33:52.008Z,90.15
2019-01-03T08:37:17.017Z,90.31
2019-01-03T08:40:38.806Z,90.80
2019-01-03T08:44:14.068Z,90.82
2019-01-03T08:47:36.148Z,90.74
2019-01-03T08:51:05.231Z,90.79
2019-01-03T08:54:35.528Z,90.82
2019-01-03T08:57:59.862Z,90.81
2019-01-03T09:01:22.830Z,90.81
2019-01-03T09:04:52.317Z,90.79
2019-01-03T09:08:21.178Z,90.66
2019-01-03T09:11:50.487Z,90.52
2019-01-03T09:15:16.723Z,90.48
2019-01-03T09:18:38.686Z,90.60
2019-01-03T09:22:05.374Z,90.50
2019-01-03T09:25:37.768Z,90.60
2019-01-03T09:28:59.797Z,90.57
2019-01-03T09:32:17.306Z,90.51
2019-01-03T09:35:39.366Z,90.26
2019-01-03T09:39:06.142Z,90.25
2019-01-03T09:42:46.469Z,90.02
2019-01-03T09:45:51.159Z,89.74
2019-01-03T09:48:55.421Z,89.10
2019-01-03T09:51:59.585Z,89.09
2019-01-03T09:55:03.882Z,88.71
2019-01-03T09:58:08.225Z,88.57
2019-01-03T10:01:12.407Z,87.75
2019-01-03T10:04:16.695Z,87.27
2019-01-03T10:07:20.924Z,86.85
2019-01-03T10:10:25.068Z,86.34
2019-01-03T10:13:29.265Z,84.96
2019-01-03T10:16:33.515Z,84.07
2019-01-03T10:19:37.634Z,83.50
2019-01-03T10:22:41.733Z,83.17
2019-01-03T10:25:46.039Z,82.50
2019-01-03T10:28:50.535Z,82.49
2019-01-03T10:31:55.235Z,82.23
2019-01-03T10:34:59.625Z,81.20
2019-01-03T10:38:04.118Z,80.82
2019-01-03T10:41:08.521Z,80.47
2019-01-03T10:44:12.973Z,79.58
2019-01-03T10:47:17.391Z,79.33
2019-01-03T10:50:21.564Z,79.28
2019-01-03T10:53:25.908Z,79.45
2019-01-03T10:56:30.129Z,79.49
2019-01-03T10:59:34.331Z,79.60
2019-01-03T11:02:38.327Z,79.38
2019-01-03T11:05:42.501Z,79.75
2019-01-03T11:08:46.733Z,80.12
2019-01-03T11:11:51.003Z,80.21
2019-01-03T11:14:55.300Z,79.98
2019-01-03T11:17:59.330Z,79.44
2019-01-03T11:21:03.486Z,78.82
2019-01-03T11:24:07.917Z,78.32
2019-01-03T11:27:12.196Z,78.45
2019-01-03T11:30:16.528Z,78.33
2019-01-03T11:33:20.721Z,77.86
2019-01-03T11:36:24.989Z,77.69
2019-01-03T11:39:29.058Z,77.34
2019-01-03T11:42:33.230Z,76.83
2019-01-03T11:45:37.418Z,76.90
2019-01-03T11:48:45.451Z,77.00
2019-01-03T11:51:49.476Z,77.03
2019-01-03T11:54:53.519Z,77.57
2019-01-03T11:57:57.664Z,78.21
2019-01-03T12:01:03.584Z,78.65
2019-01-03T12:04:07.481Z,78.75
2019-01-03T12:07:11.359Z,79.05
2019-01-03T12:10:15.456Z,79.17
2019-01-03T12:13:19.373Z,79.16
2019-01-03T12:16:23.501Z,79.27
2019-01-03T12:19:27.557Z,79.19
2019-01-03T12:22:32.006Z,79.18
2019-01-03T12:25:37.779Z,78.74
2019-01-03T12:28:42.443Z,78.80
2019-01-03T12:31:46.478Z,78.54
2019-01-03T12:34:50.572Z,78.64
2019-01-03T12:37:54.522Z,78.50
2019-01-03T12:40:58.727Z,78.37
2019-01-03T12:44:03.053Z,78.17
2019-01-03T12:47:09.412Z,78.06
2019-01-03T12:50:13.351Z,78.16
2019-01-03T12:53:17.809Z,77.90
2019-01-03T12:56:23.885Z,77.60
2019-01-03T12:59:28.303Z,77.56
2019-01-03T13:02:32.516Z,77.80
2019-01-03T13:05:36.723Z,77.89
2019-01-03T13:08:41.252Z,77.98
2019-01-03T13:11:45.920Z,78.13
2019-01-03T13:14:50.373Z,78.17
2019-01-03T13:17:54.832Z,78.32
2019-01-03T13:21:01.587Z,78.41
2019-01-03T13:24:05.952Z,78.81
2019-01-03T13:27:10.400Z,79.53
2019-01-03T13:30:18.886Z,80.37
2019-01-03T13:33:23.220Z,80.47
2019-01-03T13:36:27.491Z,80.55
2019-01-03T13:39:31.752Z,81.02
2019-01-03T13:42:36.155Z,81.49
2019-01-03T13:45:40.341Z,81.26
2019-01-03T13:48:46.116Z,81.16
2019-01-03T13:51:51.987Z,81.45
2019-01-03T13:54:56.583Z,81.48
2019-01-03T13:58:00.939Z,81.52
2019-01-03T14:01:05.390Z,81.80
2019-01-03T14:04:09.683Z,82.25
2019-01-03T14:07:14.112Z,82.20
2019-01-03T14:10:18.527Z,82.51
2019-01-03T14:13:22.772Z,82.90
2019-01-03T14:16:27.293Z,82.90
2019-01-03T14:19:34.587Z,82.66
2019-01-03T14:22:38.607Z,82.61
2019-01-03T14:25:42.680Z,82.57
2019-01-03T14:28:46.940Z,82.90
2019-01-03T14:31:51.364Z,82.46
2019-01-03T14:34:55.850Z,82.59
2019-01-03T14:38:02.843Z,82.87
2019-01-03T14:41:07.126Z,83.12
2019-01-03T14:44:11.484Z,83.26
2019-01-03T14:47:15.595Z,83.40
2019-01-03T14:50:20.017Z,83.60
2019-01-03T14:53:24.263Z,83.91
2019-01-03T14:56:28.500Z,83.76
2019-01-03T14:59:32.808Z,84.56
2019-01-03T15:02:37.294Z,84.78
2019-01-03T15:05:41.420Z,84.83
2019-01-03T15:08:45.504Z,85.83
2019-01-03T15:11:49.620Z,85.87
2019-01-03T15:14:53.789Z,86.00
2019-01-03T15:17:58.067Z,86.09
2019-01-03T15:21:02.434Z,85.96
2019-01-03T15:24:06.476Z,85.81
2019-01-03T15:27:13.842Z,85.79
2019-01-03T15:30:18.221Z,85.90
2019-01-03T15:33:22.481Z,86.63
2019-01-03T15:36:26.623Z,86.88
2019-01-03T15:39:30.909Z,87.07
2019-01-03T15:42:34.960Z,87.48
2019-01-03T15:45:39.051Z,87.49
2019-01-03T15:48:43.271Z,87.35
2019-01-03T15:51:47.575Z,87.34
2019-01-03T15:54:51.855Z,87.64
2019-01-03T15:57:56.147Z,87.79
2019-01-03T16:01:00.377Z,87.69
2019-01-03T16:04:04.685Z,87.63
2019-01-03T16:07:08.739Z,87.56
2019-01-03T16:10:12.874Z,87.57
2019-01-03T16:13:17.277Z,87.59
2019-01-03T16:16:21.349Z,87.81
2019-01-03T16:19:25.913Z,88.04
2019-01-03T16:22:30.274Z,88.43
2019-01-03T16:25:34.569Z,88.45
2019-01-03T16:28:38.657Z,88.94
2019-01-03T16:31:42.738Z,88.83
2019-01-03T16:34:46.806Z,88.61
2019-01-03T16:37:54.240Z,88.46
2019-01-03T16:40:58.603Z,88.48
2019-01-03T16:44:02.957Z,88.56
2019-01-03T16:47:07.382Z,88.77
2019-01-03T16:50:14.335Z,88.87
2019-01-03T16:53:18.767Z,88.97
2019-01-03T16:56:24.850Z,89.03
2019-01-03T16:59:29.196Z,89.07
2019-01-03T17:02:33.405Z,89.08
2019-01-03T17:05:37.686Z,88.92
2019-01-03T17:08:41.835Z,88.22
2019-01-03T17:11:46.273Z,88.06
2019-01-03T17:14:50.374Z,88.05
2019-01-03T17:17:54.616Z,88.13
2019-01-03T17:20:59.191Z,88.13
2019-01-03T17:24:03.681Z,88.00
2019-01-03T17:27:08.204Z,88.00
2019-01-03T17:30:12.981Z,87.18
2019-01-03T17:33:17.838Z,86.84
2019-01-03T17:36:22.482Z,85.91
2019-01-03T17:39:26.995Z,85.59
2019-01-03T17:42:31.313Z,85.57
2019-01-03T17:45:35.744Z,85.62
2019-01-03T17:48:40.063Z,85.72
2019-01-03T17:51:45.807Z,85.78
2019-01-03T17:54:50.171Z,85.82
2019-01-03T17:57:54.538Z,85.65
2019-01-03T18:00:58.736Z,85.57
2019-01-03T18:04:03.823Z,85.40
2019-01-03T18:07:08.334Z,85.32
2019-01-03T18:10:16.584Z,85.25
2019-01-03T18:13:20.650Z,85.10
2019-01-03T18:16:24.853Z,84.88
2019-01-03T18:19:29.139Z,84.90
2019-01-03T18:22:33.324Z,84.86
2019-01-03T18:25:37.524Z,84.90
2019-01-03T18:28:41.669Z,84.70
2019-01-03T18:31:45.924Z,84.65
2019-01-03T18:34:52.075Z,84.45
2019-01-03T18:37:56.893Z,83.45
2019-01-03T18:41:01.206Z,83.42
2019-01-03T18:44:06.036Z,83.37
2019-01-03T18:47:09.995Z,82.95
2019-01-03T18:50:18.886Z,82.27
2019-01-03T18:53:20.221Z,81.90
2019-01-03T18:56:24.324Z,82.03
2019-01-03T18:59:28.347Z,81.81
2019-01-03T19:02:33.118Z,81.61
2019-01-03T19:05:37.462Z,80.90
2019-01-03T19:08:41.604Z,80.96
2019-01-03T19:11:45.791Z,81.19
2019-01-03T19:14:49.912Z,80.86
2019-01-03T19:17:54.115Z,80.96
2019-01-03T19:20:58.610Z,80.87
2019-01-03T19:24:02.671Z,80.78
2019-01-03T19:27:06.909Z,80.46
2019-01-03T19:30:17.913Z,80.61
2019-01-03T19:33:22.306Z,81.04
2019-01-03T19:36:26.422Z,80.80
2019-01-03T19:39:30.446Z,80.92
2019-01-03T19:42:34.592Z,81.05
2019-01-03T19:45:38.727Z,81.31
2019-01-03T19:48:43.154Z,81.76
2019-01-03T19:51:47.590Z,82.42
2019-01-03T19:54:52.260Z,82.95
2019-01-03T19:57:57.358Z,83.51
2019-01-03T20:01:01.646Z,84.16
2019-01-03T20:04:07.797Z,84.56
2019-01-03T20:07:13.179Z,85.50
2019-01-03T20:10:17.541Z,86.26
2019-01-03T20:13:22.535Z,86.85
2019-01-03T20:16:27.024Z,87.26
2019-01-03T20:19:31.456Z,88.13
2019-01-03T20:22:38.808Z,88.45
2019-01-03T20:25:43.207Z,89.30
2019-01-03T20:28:47.521Z,90.06
2019-01-03T20:31:52.003Z,90.17
2019-01-03T20:34:56.564Z,90.22
2019-01-03T20:38:01.223Z,90.09
2019-01-03T20:41:05.784Z,90.06
2019-01-03T20:44:10.452Z,90.35
2019-01-03T20:47:15.210Z,90.53
2019-01-03T20:50:22.735Z,90.73
2019-01-03T20:53:27.443Z,90.79
2019-01-03T20:56:35.784Z,91.22
2019-01-03T20:59:39.932Z,91.22
2019-01-03T21:02:45.717Z,91.19
2019-01-03T21:05:50.682Z,91.48
2019-01-03T21:08:55.185Z,91.82
2019-01-03T21:12:00.204Z,92.08
2019-01-03T21:15:05.291Z,92.23
2019-01-03T21:18:10.391Z,92.41
2019-01-03T21:21:15.134Z,92.30
2019-01-03T21:24:19.630Z,92.41
2019-01-03T21:27:24.126Z,92.38
2019-01-03T21:30:28.941Z,92.53
2019-01-03T21:33:33.537Z,92.52
2019-01-03T21:36:38.474Z,92.53
2019-01-03T21:39:43.299Z,92.49
2019-01-03T21:42:47.893Z,92.63
2019-01-03T21:45:52.216Z,92.49
2019-01-03T21:48:56.557Z,92.68
2019-01-03T21:52:01.011Z,92.68
2019-01-03T21:58:28.873Z,92.44
2019-01-03T22:01:33.111Z,92.61
2019-01-03T22:04:37.546Z,92.58
2019-01-03T22:07:44.307Z,92.82
2019-01-03T22:10:48.758Z,93.02
2019-01-03T22:13:53.076Z,93.26
2019-01-03T22:16:57.609Z,93.26
2019-01-03T22:20:27.184Z,92.82
2019-01-03T22:23:34.767Z,92.56
2019-01-03T22:26:39.220Z,92.30
2019-01-03T22:29:46.793Z,91.94
2019-01-03T22:32:51.141Z,91.64
2019-01-03T22:35:55.716Z,91.61
2019-01-03T22:39:00.000Z,91.75
2019-01-03T22:42:04.435Z,91.71
2019-01-03T22:45:10.262Z,91.49
2019-01-03T22:48:14.525Z,91.30
2019-01-03T22:51:25.085Z,91.23
2019-01-03T22:54:29.305Z,90.81
2019-01-03T22:57:33.740Z,90.63
2019-01-03T23:00:49.497Z,90.59
2019-01-03T23:04:02.867Z,90.53
2019-01-03T23:07:07.201Z,90.45
2019-01-03T23:10:11.919Z,90.52
2019-01-03T23:13:16.116Z,90.54
2019-01-03T23:16:20.193Z,90.61
2019-01-03T23:19:24.213Z,90.77
2019-01-03T23:22:30.059Z,91.00
2019-01-03T23:25:36.435Z,91.06
2019-01-03T23:28:40.633Z,91.44
2019-01-03T23:31:47.746Z,91.55
2019-01-03T23:34:53.464Z,91.52
2019-01-03T23:37:58.069Z,91.57
2019-01-03T23:41:02.504Z,91.50
2019-01-03T23:44:08.438Z,91.40
2019-01-03T23:47:19.434Z,91.35
2019-01-03T23:50:31.478Z,91.19
2019-01-03T23:53:36.037Z,91.01
2019-01-03T23:56:40.152Z,90.85
2019-01-03T23:59:44.332Z,90.80
